createdAt,value
2017-12-20T00:00:19.618Z,53.30
2017-12-20T00:00:54.648Z,53.20
2017-12-20T00:01:30.122Z,58.30
2017-12-20T00:02:05.327Z,56.20
2017-12-20T00:02:40.708Z,53.90
2017-12-20T00:03:15.999Z,53.40
2017-12-20T00:03:51.005Z,55.70
2017-12-20T00:04:26.078Z,62.00
2017-12-20T00:05:01.283Z,62.10
2017-12-20T00:05:36.648Z,56.20
2017-12-20T00:06:12.178Z,59.20
2017-12-20T00:06:47.656Z,59.00
2017-12-20T00:07:22.743Z,52.30
2017-12-20T00:07:58.313Z,53.80
2017-12-20T00:08:33.507Z,57.10
2017-12-20T00:09:08.885Z,54.20
2017-12-20T00:09:44.089Z,53.50
2017-12-20T00:10:19.497Z,59.60
2017-12-20T00:10:54.893Z,57.20
2017-12-20T00:11:30.282Z,53.80
2017-12-20T00:12:05.457Z,56.70
2017-12-20T00:12:40.653Z,61.30
2017-12-20T00:13:16.121Z,57.70
2017-12-20T00:13:51.530Z,53.30
2017-12-20T00:14:26.503Z,59.20
2017-12-20T00:15:01.500Z,63.10
2017-12-20T00:15:37.104Z,61.90
2017-12-20T00:16:12.709Z,58.30
2017-12-20T00:16:48.193Z,62.40
2017-12-20T00:17:23.671Z,61.30
2017-12-20T00:17:59.074Z,62.00
2017-12-20T00:18:34.452Z,57.30
2017-12-20T00:19:09.645Z,58.40
2017-12-20T00:19:44.616Z,53.30
2017-12-20T00:20:20.115Z,58.20
2017-12-20T00:20:55.623Z,63.50
2017-12-20T00:21:31.214Z,59.60
2017-12-20T00:22:06.720Z,59.20
2017-12-20T00:22:41.782Z,57.20
2017-12-20T00:23:16.983Z,57.20
2017-12-20T00:23:52.057Z,62.40
2017-12-20T00:24:27.255Z,68.00
2017-12-20T00:25:03.624Z,66.40
2017-12-20T00:25:39.127Z,59.90
2017-12-20T00:26:15.130Z,60.90
2017-12-20T00:26:50.532Z,60.50
2017-12-20T00:27:25.830Z,62.10
2017-12-20T00:28:01.094Z,68.00
2017-12-20T00:28:36.592Z,65.80
2017-12-20T00:29:11.858Z,65.00
2017-12-20T00:29:47.654Z,63.30
2017-12-20T00:30:22.821Z,62.20
2017-12-20T00:30:57.911Z,68.80
2017-12-20T00:31:33.122Z,70.00
2017-12-20T00:32:08.511Z,67.40
2017-12-20T00:32:44.010Z,67.20
2017-12-20T00:33:19.482Z,66.00
2017-12-20T00:33:54.778Z,76.00
2017-12-20T00:34:29.951Z,78.20
2017-12-20T00:35:05.242Z,65.10
2017-12-20T00:35:40.521Z,59.30
2017-12-20T00:36:15.646Z,60.60
2017-12-20T00:36:50.814Z,63.00
2017-12-20T00:37:26.611Z,72.80
2017-12-20T00:38:01.893Z,68.80
2017-12-20T00:38:37.200Z,66.10
2017-12-20T00:39:12.397Z,60.70
2017-12-20T00:39:47.774Z,62.10
2017-12-20T00:40:22.984Z,65.00
2017-12-20T00:40:58.353Z,71.40
2017-12-20T00:41:33.486Z,72.80
2017-12-20T00:42:08.754Z,68.60
2017-12-20T00:42:44.060Z,66.60
2017-12-20T00:43:19.436Z,71.80
2017-12-20T00:43:54.735Z,77.10
2017-12-20T00:44:30.238Z,76.60
2017-12-20T00:45:05.603Z,75.70
2017-12-20T00:45:41.101Z,72.40
2017-12-20T00:46:16.497Z,72.90
2017-12-20T00:46:51.999Z,68.50
2017-12-20T00:47:27.274Z,71.20
2017-12-20T00:48:02.479Z,68.80
2017-12-20T00:48:37.646Z,63.10
2017-12-20T00:49:12.847Z,67.50
2017-12-20T00:49:48.162Z,65.10
2017-12-20T00:50:23.343Z,64.20
2017-12-20T00:50:58.641Z,66.00
2017-12-20T00:51:33.735Z,73.70
2017-12-20T00:52:08.930Z,74.40
2017-12-20T00:52:44.199Z,70.30
2017-12-20T00:53:19.499Z,68.30
2017-12-20T00:53:54.776Z,67.40
2017-12-20T00:54:30.077Z,73.50
2017-12-20T00:55:05.251Z,68.00
2017-12-20T00:55:40.548Z,65.20
2017-12-20T00:56:16.154Z,73.10
2017-12-20T00:56:51.439Z,68.30
2017-12-20T00:57:26.739Z,68.00
2017-12-20T00:58:02.314Z,68.60
2017-12-20T00:58:37.604Z,66.70
2017-12-20T00:59:13.091Z,66.70
2017-12-20T00:59:48.674Z,68.20
2017-12-20T01:00:23.950Z,65.30
2017-12-20T01:00:58.837Z,72.30
2017-12-20T01:01:34.166Z,69.80
2017-12-20T01:02:09.543Z,76.90
2017-12-20T01:02:45.140Z,77.30
2017-12-20T01:03:20.514Z,75.50
2017-12-20T01:03:55.711Z,74.90
2017-12-20T01:04:31.287Z,68.20
2017-12-20T01:05:06.881Z,65.30
2017-12-20T01:05:42.255Z,68.20
2017-12-20T01:06:17.756Z,70.00
2017-12-20T01:06:52.778Z,70.50
2017-12-20T01:07:28.061Z,73.70
2017-12-20T01:08:03.359Z,83.50
2017-12-20T01:08:38.632Z,76.80
2017-12-20T01:09:13.827Z,73.70
2017-12-20T01:09:48.911Z,76.10
2017-12-20T01:10:24.525Z,74.80
2017-12-20T01:11:00.116Z,78.40
2017-12-20T01:11:35.339Z,80.10
2017-12-20T01:12:10.907Z,80.00
2017-12-20T01:12:46.501Z,76.40
2017-12-20T01:13:21.797Z,78.50
2017-12-20T01:13:57.064Z,81.40
2017-12-20T01:14:32.469Z,79.30
2017-12-20T01:15:07.737Z,83.00
2017-12-20T01:15:43.550Z,84.20
2017-12-20T01:16:19.016Z,85.10
2017-12-20T01:16:54.644Z,85.20
2017-12-20T01:17:30.419Z,76.10
2017-12-20T01:18:05.716Z,83.60
2017-12-20T01:18:41.114Z,90.80
2017-12-20T01:19:16.483Z,80.30
2017-12-20T01:19:51.690Z,80.60
2017-12-20T01:20:27.162Z,84.10
2017-12-20T01:21:02.568Z,77.70
2017-12-20T01:21:38.083Z,77.90
2017-12-20T01:22:13.484Z,76.40
2017-12-20T01:22:48.957Z,81.70
2017-12-20T01:23:24.453Z,85.20
2017-12-20T01:24:00.167Z,81.10
2017-12-20T01:24:35.340Z,80.50
2017-12-20T01:25:10.637Z,77.20
2017-12-20T01:25:45.909Z,82.40
2017-12-20T01:26:21.408Z,84.80
2017-12-20T01:26:56.808Z,85.30
2017-12-20T01:27:32.004Z,86.30
2017-12-20T01:28:07.288Z,91.60
2017-12-20T01:28:42.387Z,90.30
2017-12-20T01:29:17.560Z,86.40
2017-12-20T01:29:52.756Z,84.00
2017-12-20T01:30:27.973Z,84.80
2017-12-20T01:31:03.345Z,81.30
2017-12-20T01:31:38.639Z,77.30
2017-12-20T01:32:14.040Z,82.40
2017-12-20T01:32:49.632Z,90.10
2017-12-20T01:33:24.712Z,90.00
2017-12-20T01:34:00.425Z,82.80
2017-12-20T01:34:35.491Z,90.10
2017-12-20T01:35:10.790Z,89.90
2017-12-20T01:35:46.302Z,84.20
2017-12-20T01:36:21.880Z,88.10
2017-12-20T01:36:57.200Z,91.00
2017-12-20T01:37:32.483Z,95.30
2017-12-20T01:38:07.781Z,93.20
2017-12-20T01:38:43.264Z,90.30
2017-12-20T01:39:18.469Z,89.70
2017-12-20T01:39:53.744Z,89.90
2017-12-20T01:40:28.965Z,79.80
2017-12-20T01:41:04.364Z,79.80
2017-12-20T01:41:39.637Z,89.80
2017-12-20T01:42:14.866Z,83.80
2017-12-20T01:42:50.538Z,85.20
2017-12-20T01:43:26.244Z,99.80
2017-12-20T01:44:01.616Z,94.90
2017-12-20T01:44:37.014Z,86.80
2017-12-20T01:45:12.285Z,88.80
2017-12-20T01:45:47.689Z,84.90
2017-12-20T01:46:23.263Z,91.00
2017-12-20T01:46:58.490Z,102.10
2017-12-20T01:47:33.787Z,100.00
2017-12-20T01:48:08.755Z,96.40
2017-12-20T01:48:44.461Z,93.20
2017-12-20T01:49:20.125Z,90.40
2017-12-20T01:49:55.444Z,98.10
2017-12-20T01:50:30.716Z,93.80
2017-12-20T01:51:06.012Z,89.20
2017-12-20T01:51:41.088Z,95.50
2017-12-20T01:52:16.512Z,94.70
2017-12-20T01:52:51.814Z,91.20
2017-12-20T01:53:27.099Z,96.40
2017-12-20T01:54:02.407Z,97.50
2017-12-20T01:54:37.477Z,89.60
2017-12-20T01:55:13.081Z,95.90
2017-12-20T01:55:48.250Z,100.70
2017-12-20T01:56:23.743Z,98.00
2017-12-20T01:56:59.127Z,91.00
2017-12-20T01:57:34.646Z,94.90
2017-12-20T01:58:09.547Z,103.70
2017-12-20T01:58:44.719Z,105.30
2017-12-20T01:59:20.015Z,103.70
2017-12-20T01:59:55.387Z,94.50
2017-12-20T02:00:30.590Z,95.60
2017-12-20T02:01:05.760Z,96.80
2017-12-20T02:01:41.059Z,102.40
2017-12-20T02:02:16.360Z,96.00
2017-12-20T02:02:51.855Z,97.00
2017-12-20T02:03:27.334Z,100.30
2017-12-20T02:04:02.830Z,108.50
2017-12-20T02:04:37.932Z,104.80
2017-12-20T02:05:13.107Z,96.40
2017-12-20T02:05:48.508Z,92.60
2017-12-20T02:06:23.988Z,100.40
2017-12-20T02:06:59.283Z,102.00
2017-12-20T02:07:34.582Z,106.10
2017-12-20T02:08:09.471Z,107.80
2017-12-20T02:08:45.344Z,102.90
2017-12-20T02:09:20.686Z,107.20
2017-12-20T02:09:55.952Z,102.50
2017-12-20T02:10:31.130Z,95.00
2017-12-20T02:11:06.428Z,93.70
2017-12-20T02:11:41.897Z,94.00
2017-12-20T02:12:17.115Z,94.70
2017-12-20T02:12:52.489Z,100.80
2017-12-20T02:13:27.788Z,106.00
2017-12-20T02:14:03.067Z,107.20
2017-12-20T02:14:38.362Z,98.60
2017-12-20T02:15:13.564Z,99.70
2017-12-20T02:15:48.731Z,98.80
2017-12-20T02:16:24.524Z,103.10
2017-12-20T02:16:59.693Z,107.80
2017-12-20T02:17:35.216Z,107.20
2017-12-20T02:18:10.485Z,111.40
2017-12-20T02:18:45.883Z,115.20
2017-12-20T02:19:21.254Z,107.40
2017-12-20T02:19:56.459Z,100.70
2017-12-20T02:20:31.835Z,111.10
2017-12-20T02:21:06.940Z,100.10
2017-12-20T02:21:42.518Z,93.90
2017-12-20T02:22:18.026Z,100.40
2017-12-20T02:22:53.658Z,108.90
2017-12-20T02:23:29.043Z,101.90
2017-12-20T02:24:04.419Z,95.30
2017-12-20T02:24:39.726Z,99.20
2017-12-20T02:25:15.098Z,97.50
2017-12-20T02:25:50.601Z,100.20
2017-12-20T02:26:26.176Z,100.70
2017-12-20T02:27:01.490Z,109.20
2017-12-20T02:27:37.562Z,109.50
2017-12-20T02:28:12.902Z,111.30
2017-12-20T02:28:48.281Z,106.20
2017-12-20T02:29:23.471Z,106.40
2017-12-20T02:29:58.653Z,110.40
2017-12-20T02:30:34.361Z,108.50
2017-12-20T02:31:09.539Z,113.30
2017-12-20T02:31:44.735Z,115.20
2017-12-20T02:32:19.604Z,103.70
2017-12-20T02:32:54.900Z,105.90
2017-12-20T02:33:30.497Z,107.80
2017-12-20T02:34:05.696Z,108.30
2017-12-20T02:34:40.967Z,108.60
2017-12-20T02:35:16.669Z,111.60
2017-12-20T02:35:51.843Z,107.50
2017-12-20T02:36:27.036Z,107.50
2017-12-20T02:37:02.412Z,112.00
2017-12-20T02:37:37.715Z,111.60
2017-12-20T02:38:13.088Z,108.50
2017-12-20T02:38:48.527Z,113.60
2017-12-20T02:39:24.003Z,114.60
2017-12-20T02:39:59.099Z,109.90
2017-12-20T02:40:34.640Z,103.90
2017-12-20T02:41:09.816Z,106.10
2017-12-20T02:41:45.107Z,99.90
2017-12-20T02:42:20.432Z,105.20
2017-12-20T02:42:55.818Z,117.00
2017-12-20T02:43:31.326Z,113.60
2017-12-20T02:44:06.748Z,100.70
2017-12-20T02:44:42.259Z,101.50
2017-12-20T02:45:17.642Z,103.60
2017-12-20T02:45:52.838Z,108.30
2017-12-20T02:46:28.044Z,114.90
2017-12-20T02:47:03.441Z,110.10
2017-12-20T02:47:40.424Z,111.30
2017-12-20T02:48:15.649Z,106.50
2017-12-20T02:48:51.035Z,105.70
2017-12-20T02:49:26.161Z,101.80
2017-12-20T02:50:01.537Z,110.20
2017-12-20T02:50:37.191Z,105.40
2017-12-20T02:51:12.566Z,93.80
2017-12-20T02:51:47.972Z,89.90
2017-12-20T02:52:23.346Z,99.50
2017-12-20T02:52:58.656Z,109.00
2017-12-20T02:53:34.047Z,111.10
2017-12-20T02:54:09.271Z,116.20
2017-12-20T02:54:44.694Z,104.80
2017-12-20T02:55:19.918Z,106.70
2017-12-20T02:55:55.204Z,119.10
2017-12-20T02:56:30.503Z,112.90
2017-12-20T02:57:05.700Z,105.40
2017-12-20T02:57:41.010Z,105.30
2017-12-20T02:58:16.300Z,106.70
2017-12-20T02:58:51.824Z,108.20
2017-12-20T02:59:27.112Z,104.60
2017-12-20T03:00:02.651Z,103.20
2017-12-20T03:00:38.042Z,105.50
2017-12-20T03:01:13.435Z,98.90
2017-12-20T03:01:48.517Z,100.80
2017-12-20T03:02:23.519Z,109.60
2017-12-20T03:02:58.799Z,109.50
2017-12-20T03:03:34.099Z,111.00
2017-12-20T03:04:09.555Z,111.00
2017-12-20T03:04:44.671Z,118.50
2017-12-20T03:05:19.993Z,129.30
2017-12-20T03:05:55.590Z,120.70
2017-12-20T03:06:30.760Z,113.50
2017-12-20T03:07:06.256Z,121.80
2017-12-20T03:07:43.318Z,119.80
2017-12-20T03:08:18.711Z,122.20
2017-12-20T03:08:54.280Z,124.80
2017-12-20T03:09:29.575Z,119.70
2017-12-20T03:10:04.547Z,109.70
2017-12-20T03:10:39.969Z,119.10
2017-12-20T03:11:15.140Z,119.80
2017-12-20T03:11:50.336Z,112.60
2017-12-20T03:12:25.502Z,117.00
2017-12-20T03:13:00.798Z,120.40
2017-12-20T03:13:36.070Z,114.90
2017-12-20T03:14:11.370Z,118.30
2017-12-20T03:14:46.545Z,117.00
2017-12-20T03:15:22.042Z,127.50
2017-12-20T03:15:57.659Z,127.70
2017-12-20T03:16:33.358Z,120.60
2017-12-20T03:17:08.634Z,121.40
2017-12-20T03:17:43.643Z,121.80
2017-12-20T03:18:18.923Z,132.10
2017-12-20T03:18:54.462Z,140.60
2017-12-20T03:19:29.647Z,131.40
2017-12-20T03:20:04.734Z,133.40
2017-12-20T03:20:40.215Z,138.30
2017-12-20T03:21:15.450Z,138.90
2017-12-20T03:21:50.645Z,137.00
2017-12-20T03:22:25.554Z,137.20
2017-12-20T03:23:00.833Z,132.50
2017-12-20T03:23:36.259Z,133.80
2017-12-20T03:24:11.648Z,134.30
2017-12-20T03:24:47.470Z,125.50
2017-12-20T03:25:22.978Z,130.40
2017-12-20T03:25:58.393Z,143.80
2017-12-20T03:26:33.904Z,135.40
2017-12-20T03:27:09.528Z,144.50
2017-12-20T03:27:44.823Z,156.70
2017-12-20T03:28:19.941Z,157.80
2017-12-20T03:28:55.334Z,142.10
2017-12-20T03:29:30.549Z,135.60
2017-12-20T03:30:05.748Z,132.30
2017-12-20T03:30:41.168Z,140.00
2017-12-20T03:31:16.264Z,146.40
2017-12-20T03:31:51.531Z,145.60
2017-12-20T03:32:26.523Z,127.10
2017-12-20T03:33:01.947Z,132.00
2017-12-20T03:33:37.143Z,136.30
2017-12-20T03:34:12.472Z,138.60
2017-12-20T03:34:47.768Z,148.50
2017-12-20T03:35:23.082Z,152.80
2017-12-20T03:35:58.576Z,143.10
2017-12-20T03:36:33.998Z,147.50
2017-12-20T03:37:09.546Z,144.90
2017-12-20T03:37:44.956Z,139.90
2017-12-20T03:38:20.346Z,127.50
2017-12-20T03:38:55.760Z,137.40
2017-12-20T03:39:31.049Z,136.60
2017-12-20T03:40:06.383Z,139.20
2017-12-20T03:40:41.774Z,142.20
2017-12-20T03:41:17.094Z,147.30
2017-12-20T03:41:52.283Z,143.10
2017-12-20T03:42:27.939Z,152.60
2017-12-20T03:43:03.133Z,141.70
2017-12-20T03:43:38.255Z,136.80
2017-12-20T03:44:13.552Z,147.70
2017-12-20T03:44:48.967Z,156.50
2017-12-20T03:45:24.456Z,140.10
2017-12-20T03:45:59.677Z,145.60
2017-12-20T03:46:35.070Z,162.00
2017-12-20T03:47:10.396Z,147.00
2017-12-20T03:47:45.615Z,145.10
2017-12-20T03:48:21.241Z,130.60
2017-12-20T03:48:56.539Z,131.40
2017-12-20T03:49:31.567Z,140.50
2017-12-20T03:50:07.154Z,138.80
2017-12-20T03:50:42.675Z,135.40
2017-12-20T03:51:17.971Z,145.90
2017-12-20T03:51:53.389Z,150.80
2017-12-20T03:52:28.990Z,138.90
2017-12-20T03:53:04.522Z,146.90
2017-12-20T03:53:39.603Z,151.40
2017-12-20T03:54:14.914Z,143.90
2017-12-20T03:54:50.500Z,136.70
2017-12-20T03:55:25.822Z,138.20
2017-12-20T03:56:01.200Z,141.00
2017-12-20T03:56:36.511Z,134.50
2017-12-20T03:57:12.404Z,139.20
2017-12-20T03:57:47.911Z,146.80
2017-12-20T03:58:23.523Z,144.60
2017-12-20T03:58:58.829Z,145.60
2017-12-20T03:59:34.112Z,138.80
2017-12-20T04:00:09.321Z,137.40
2017-12-20T04:00:44.599Z,152.80
2017-12-20T04:01:19.803Z,165.40
2017-12-20T04:01:55.366Z,158.40
2017-12-20T04:02:30.768Z,150.20
2017-12-20T04:03:06.241Z,161.60
2017-12-20T04:03:41.766Z,162.10
2017-12-20T04:04:17.090Z,146.70
2017-12-20T04:04:52.427Z,145.10
2017-12-20T04:05:27.690Z,156.70
2017-12-20T04:06:02.887Z,157.30
2017-12-20T04:06:38.065Z,163.20
2017-12-20T04:07:13.256Z,157.00
2017-12-20T04:07:48.426Z,164.90
2017-12-20T04:08:23.627Z,159.50
2017-12-20T04:08:58.928Z,146.60
2017-12-20T04:09:34.323Z,147.50
2017-12-20T04:10:09.728Z,145.20
2017-12-20T04:10:44.892Z,142.60
2017-12-20T04:11:20.091Z,157.20
2017-12-20T04:11:55.386Z,160.90
2017-12-20T04:12:30.552Z,149.50
2017-12-20T04:13:05.919Z,142.60
2017-12-20T04:13:41.516Z,145.50
2017-12-20T04:14:17.019Z,152.20
2017-12-20T04:14:52.215Z,137.70
2017-12-20T04:15:27.561Z,139.40
2017-12-20T04:16:02.732Z,139.40
2017-12-20T04:16:38.022Z,141.50
2017-12-20T04:17:13.188Z,159.00
2017-12-20T04:17:48.977Z,150.80
2017-12-20T04:18:24.344Z,152.70
2017-12-20T04:18:59.641Z,155.50
2017-12-20T04:19:35.139Z,151.90
2017-12-20T04:20:10.434Z,157.60
2017-12-20T04:20:45.830Z,160.60
2017-12-20T04:21:21.203Z,144.50
2017-12-20T04:21:56.398Z,146.00
2017-12-20T04:22:31.569Z,144.60
2017-12-20T04:23:06.958Z,151.10
2017-12-20T04:23:42.237Z,149.30
2017-12-20T04:24:17.529Z,156.10
2017-12-20T04:24:52.629Z,159.80
2017-12-20T04:25:28.218Z,158.00
2017-12-20T04:26:03.687Z,150.10
2017-12-20T04:26:39.778Z,152.00
2017-12-20T04:27:15.288Z,151.90
2017-12-20T04:27:50.757Z,142.50
2017-12-20T04:28:26.055Z,143.90
2017-12-20T04:29:01.230Z,163.70
2017-12-20T04:29:36.634Z,169.20
2017-12-20T04:30:11.927Z,143.90
2017-12-20T04:30:47.421Z,142.10
2017-12-20T04:31:22.687Z,143.60
2017-12-20T04:31:58.080Z,148.00
2017-12-20T04:32:33.173Z,135.70
2017-12-20T04:33:08.250Z,132.70
2017-12-20T04:33:43.650Z,134.00
2017-12-20T04:34:19.018Z,132.60
2017-12-20T04:34:54.413Z,148.70
2017-12-20T04:35:29.900Z,164.50
2017-12-20T04:36:05.198Z,176.10
2017-12-20T04:36:40.465Z,156.60
2017-12-20T04:37:15.557Z,162.10
2017-12-20T04:37:50.747Z,165.00
2017-12-20T04:38:25.915Z,161.20
2017-12-20T04:39:01.309Z,157.20
2017-12-20T04:39:36.372Z,148.60
2017-12-20T04:40:11.571Z,149.00
2017-12-20T04:40:47.165Z,152.50
2017-12-20T04:41:22.254Z,155.00
2017-12-20T04:41:57.632Z,140.50
2017-12-20T04:42:33.223Z,153.40
2017-12-20T04:43:08.391Z,151.70
2017-12-20T04:43:43.883Z,152.80
2017-12-20T04:44:19.185Z,146.10
2017-12-20T04:44:54.459Z,146.50
2017-12-20T04:45:29.970Z,141.70
2017-12-20T04:46:05.171Z,147.00
2017-12-20T04:46:40.568Z,155.20
2017-12-20T04:47:15.635Z,145.70
2017-12-20T04:47:51.226Z,141.80
2017-12-20T04:48:26.591Z,146.10
2017-12-20T04:49:02.041Z,146.80
2017-12-20T04:49:37.382Z,147.00
2017-12-20T04:50:12.353Z,145.00
2017-12-20T04:50:47.956Z,145.10
2017-12-20T04:51:23.553Z,138.00
2017-12-20T04:51:58.839Z,140.90
2017-12-20T04:52:33.912Z,140.30
2017-12-20T04:53:09.312Z,138.70
2017-12-20T04:53:44.573Z,152.00
2017-12-20T04:54:19.774Z,165.50
2017-12-20T04:54:55.239Z,170.10
2017-12-20T04:55:30.931Z,149.20
2017-12-20T04:56:06.436Z,140.90
2017-12-20T04:56:41.638Z,137.60
2017-12-20T04:57:16.829Z,133.50
2017-12-20T04:57:52.312Z,138.90
2017-12-20T04:58:27.807Z,146.00
2017-12-20T04:59:03.344Z,157.50
2017-12-20T04:59:38.887Z,151.50
2017-12-20T05:00:14.050Z,135.60
2017-12-20T05:00:49.440Z,141.40
2017-12-20T05:01:24.544Z,136.00
2017-12-20T05:01:59.933Z,135.70
2017-12-20T05:02:35.336Z,149.60
2017-12-20T05:03:10.812Z,140.10
2017-12-20T05:03:46.204Z,138.20
2017-12-20T05:04:21.578Z,137.40
2017-12-20T05:04:56.884Z,138.40
2017-12-20T05:05:32.153Z,134.70
2017-12-20T05:06:07.545Z,136.10
2017-12-20T05:06:42.949Z,132.20
2017-12-20T05:07:18.145Z,128.30
2017-12-20T05:07:54.137Z,124.60
2017-12-20T05:08:29.401Z,130.60
2017-12-20T05:09:04.609Z,138.50
2017-12-20T05:09:40.082Z,135.00
2017-12-20T05:10:15.581Z,122.10
2017-12-20T05:10:50.749Z,123.70
2017-12-20T05:11:25.841Z,126.20
2017-12-20T05:12:00.938Z,129.40
2017-12-20T05:12:36.130Z,142.70
2017-12-20T05:13:11.419Z,139.30
2017-12-20T05:13:46.694Z,142.20
2017-12-20T05:14:22.031Z,147.70
2017-12-20T05:14:57.053Z,145.70
2017-12-20T05:15:32.249Z,139.40
2017-12-20T05:16:07.836Z,136.90
2017-12-20T05:16:43.225Z,136.70
2017-12-20T05:17:18.491Z,132.20
2017-12-20T05:17:53.916Z,126.80
2017-12-20T05:18:29.918Z,127.30
2017-12-20T05:19:05.086Z,122.70
2017-12-20T05:19:40.578Z,127.10
2017-12-20T05:20:15.950Z,137.00
2017-12-20T05:20:51.134Z,140.20
2017-12-20T05:21:26.202Z,134.80
2017-12-20T05:22:01.698Z,143.20
2017-12-20T05:22:36.873Z,138.60
2017-12-20T05:23:12.302Z,140.70
2017-12-20T05:23:47.603Z,136.20
2017-12-20T05:24:23.074Z,131.20
2017-12-20T05:24:59.586Z,123.10
2017-12-20T05:25:35.149Z,135.70
2017-12-20T05:26:10.355Z,141.70
2017-12-20T05:26:45.626Z,138.80
2017-12-20T05:27:20.825Z,143.40
2017-12-20T05:27:56.100Z,135.10
2017-12-20T05:28:31.625Z,133.40
2017-12-20T05:29:06.819Z,136.20
2017-12-20T05:29:41.890Z,134.70
2017-12-20T05:30:17.196Z,134.20
2017-12-20T05:30:52.361Z,141.00
2017-12-20T05:31:27.658Z,135.20
2017-12-20T05:32:02.828Z,138.80
2017-12-20T05:32:38.233Z,144.10
2017-12-20T05:33:13.806Z,136.60
2017-12-20T05:33:49.118Z,132.30
2017-12-20T05:34:24.600Z,133.00
2017-12-20T05:34:59.888Z,145.90
2017-12-20T05:35:35.489Z,147.30
2017-12-20T05:36:10.653Z,132.00
2017-12-20T05:36:45.750Z,135.90
2017-12-20T05:37:21.018Z,147.80
2017-12-20T05:37:56.516Z,142.50
2017-12-20T05:38:31.787Z,136.70
2017-12-20T05:39:07.100Z,130.20
2017-12-20T05:39:42.571Z,133.10
2017-12-20T05:40:17.970Z,137.30
2017-12-20T05:40:53.463Z,151.20
2017-12-20T05:41:28.628Z,149.20
2017-12-20T05:42:03.921Z,144.90
2017-12-20T05:42:39.206Z,150.70
2017-12-20T05:43:14.504Z,155.00
2017-12-20T05:43:49.877Z,145.90
2017-12-20T05:44:25.398Z,140.60
2017-12-20T05:45:01.071Z,152.70
2017-12-20T05:45:36.370Z,144.60
2017-12-20T05:46:12.065Z,137.10
2017-12-20T05:46:47.543Z,137.60
2017-12-20T05:47:22.733Z,139.90
2017-12-20T05:47:57.908Z,142.40
2017-12-20T05:48:33.201Z,139.40
2017-12-20T05:49:08.381Z,149.10
2017-12-20T05:49:43.603Z,145.90
2017-12-20T05:50:19.072Z,130.60
2017-12-20T05:50:54.463Z,141.40
2017-12-20T05:51:29.633Z,135.70
2017-12-20T05:52:04.924Z,133.60
2017-12-20T05:52:40.520Z,150.60
2017-12-20T05:53:15.802Z,140.50
2017-12-20T05:53:51.190Z,135.30
2017-12-20T05:54:26.263Z,130.20
2017-12-20T05:55:01.574Z,123.90
2017-12-20T05:55:37.039Z,127.10
2017-12-20T05:56:12.538Z,115.50
2017-12-20T05:56:47.911Z,125.00
2017-12-20T05:57:23.508Z,142.20
2017-12-20T05:57:58.704Z,131.10
2017-12-20T05:58:34.180Z,117.30
2017-12-20T05:59:09.566Z,132.30
2017-12-20T05:59:45.033Z,135.30
2017-12-20T06:00:20.154Z,129.70
2017-12-20T06:00:55.419Z,128.80
2017-12-20T06:01:30.729Z,119.70
2017-12-20T06:02:05.989Z,125.70
2017-12-20T06:02:41.294Z,128.50
2017-12-20T06:03:16.596Z,119.30
2017-12-20T06:03:52.062Z,115.00
2017-12-20T06:04:27.285Z,113.30
2017-12-20T06:05:02.751Z,117.30
2017-12-20T06:05:39.976Z,118.00
2017-12-20T06:06:15.458Z,125.30
2017-12-20T06:06:50.654Z,121.60
2017-12-20T06:07:26.023Z,122.50
2017-12-20T06:08:02.022Z,119.90
2017-12-20T06:08:37.330Z,115.00
2017-12-20T06:09:12.497Z,118.70
2017-12-20T06:09:47.885Z,120.10
2017-12-20T06:10:23.164Z,118.90
2017-12-20T06:10:58.463Z,115.60
2017-12-20T06:11:33.731Z,120.50
2017-12-20T06:12:09.129Z,120.10
2017-12-20T06:12:44.308Z,120.20
2017-12-20T06:13:19.596Z,117.60
2017-12-20T06:13:55.975Z,106.40
2017-12-20T06:14:31.169Z,107.30
2017-12-20T06:15:06.585Z,112.80
2017-12-20T06:15:42.255Z,116.30
2017-12-20T06:16:17.383Z,111.90
2017-12-20T06:16:55.064Z,105.80
2017-12-20T06:17:30.355Z,112.00
2017-12-20T06:18:07.030Z,118.70
2017-12-20T06:18:43.818Z,116.70
2017-12-20T06:19:19.119Z,113.30
2017-12-20T06:19:54.190Z,113.30
2017-12-20T06:20:29.480Z,110.70
2017-12-20T06:21:04.955Z,109.20
2017-12-20T06:21:40.172Z,108.70
2017-12-20T06:22:15.439Z,113.10
2017-12-20T06:22:50.741Z,109.50
2017-12-20T06:23:26.041Z,116.10
2017-12-20T06:24:01.240Z,116.90
2017-12-20T06:24:36.456Z,113.10
2017-12-20T06:25:11.753Z,105.90
2017-12-20T06:25:47.249Z,108.80
2017-12-20T06:26:22.315Z,109.80
2017-12-20T06:26:57.540Z,122.80
2017-12-20T06:27:33.005Z,121.70
2017-12-20T06:28:08.503Z,112.50
2017-12-20T06:28:47.763Z,113.00
2017-12-20T06:29:23.068Z,110.30
2017-12-20T06:29:58.442Z,119.90
2017-12-20T06:30:33.640Z,112.90
2017-12-20T06:31:12.244Z,110.50
2017-12-20T06:31:47.413Z,97.50
2017-12-20T06:32:29.937Z,101.80
2017-12-20T06:33:05.206Z,109.10
2017-12-20T06:33:41.607Z,121.90
2017-12-20T06:34:16.970Z,122.70
2017-12-20T06:34:52.266Z,106.00
2017-12-20T06:35:27.564Z,112.70
2017-12-20T06:36:02.949Z,110.90
2017-12-20T06:36:38.237Z,116.40
2017-12-20T06:37:14.106Z,111.80
2017-12-20T06:37:50.451Z,110.60
2017-12-20T06:38:25.920Z,113.20
2017-12-20T06:39:02.425Z,104.70
2017-12-20T06:39:37.886Z,105.70
2017-12-20T06:40:13.176Z,107.60
2017-12-20T06:40:48.383Z,109.00
2017-12-20T06:41:25.358Z,100.70
2017-12-20T06:42:00.944Z,100.60
2017-12-20T06:42:36.412Z,98.50
2017-12-20T06:43:11.831Z,104.90
2017-12-20T06:43:46.996Z,113.90
2017-12-20T06:44:22.306Z,108.20
2017-12-20T06:45:03.901Z,106.50
2017-12-20T06:45:39.196Z,101.00
2017-12-20T06:46:14.399Z,110.80
2017-12-20T06:46:53.065Z,117.90
2017-12-20T06:47:29.262Z,106.90
2017-12-20T06:48:04.529Z,103.20
2017-12-20T06:51:19.973Z,103.90
2017-12-20T06:51:55.347Z,110.90
2017-12-20T06:52:30.898Z,111.10
2017-12-20T06:53:06.079Z,109.80
2017-12-20T06:53:41.181Z,109.40
2017-12-20T06:54:16.730Z,112.80
2017-12-20T06:54:52.131Z,115.60
2017-12-20T06:55:27.384Z,117.40
2017-12-20T06:56:02.857Z,106.70
2017-12-20T06:56:38.218Z,104.10
2017-12-20T06:57:13.496Z,108.00
2017-12-20T06:57:48.643Z,108.70
2017-12-20T06:58:24.014Z,105.80
2017-12-20T06:58:59.494Z,107.70
2017-12-20T06:59:34.756Z,117.90
2017-12-20T07:00:10.260Z,120.50
2017-12-20T07:00:45.767Z,126.80
2017-12-20T07:01:20.798Z,136.60
2017-12-20T07:01:56.564Z,127.40
2017-12-20T07:02:31.941Z,114.10
2017-12-20T07:03:06.989Z,118.00
2017-12-20T07:03:42.471Z,126.20
2017-12-20T07:04:17.853Z,118.40
2017-12-20T07:04:53.001Z,117.00
2017-12-20T07:05:28.098Z,105.90
2017-12-20T07:06:03.354Z,106.80
2017-12-20T07:06:38.726Z,113.40
2017-12-20T07:07:14.388Z,123.80
2017-12-20T07:09:53.998Z,114.60
2017-12-20T07:10:29.290Z,112.10
2017-12-20T07:11:04.557Z,114.50
2017-12-20T07:11:39.904Z,128.80
2017-12-20T07:12:18.282Z,118.10
2017-12-20T07:12:53.560Z,114.60
2017-12-20T07:13:28.901Z,120.10
2017-12-20T07:14:04.775Z,118.60
2017-12-20T07:14:40.122Z,114.80
2017-12-20T07:15:15.419Z,120.40
2017-12-20T07:15:50.999Z,127.20
2017-12-20T07:16:26.176Z,126.50
2017-12-20T07:17:01.639Z,120.80
2017-12-20T07:17:41.109Z,121.20
2017-12-20T07:18:19.791Z,115.70
2017-12-20T07:19:01.066Z,118.70
2017-12-20T07:19:36.141Z,113.30
2017-12-20T07:20:11.397Z,114.10
2017-12-20T07:20:47.573Z,125.50
2017-12-20T07:21:22.952Z,113.80
2017-12-20T07:21:58.335Z,111.00
2017-12-20T07:22:33.419Z,111.00
2017-12-20T07:23:08.567Z,111.50
2017-12-20T07:23:43.846Z,112.50
2017-12-20T07:24:19.193Z,118.90
2017-12-20T07:24:54.589Z,119.50
2017-12-20T07:25:29.846Z,117.60
2017-12-20T07:26:05.029Z,123.90
2017-12-20T07:26:40.318Z,115.70
2017-12-20T07:27:15.496Z,115.00
2017-12-20T07:27:52.186Z,121.70
2017-12-20T07:28:27.442Z,112.60
2017-12-20T07:29:02.624Z,117.70
2017-12-20T07:29:38.581Z,113.50
2017-12-20T07:30:13.788Z,112.60
2017-12-20T07:30:51.711Z,113.70